Pine Hills (222, JU1, PE1) Station Data

Red Flag Warning: No
Fire Weather Zone: 258
SDGE Region: Ramona
Lat/Lon: 33.049/-116.637

Observations

Time Wind Speed/Gust Temp(F) RH Fuel Moist Fuel Temp(F) Dewpt(F) Tmax(F) Tmin(F) Accum Precip 10-min Precip SL Press(mb)
3/29 8:00am 251 5 G 8 58° 20% - - 17° 59.2° 43.1° - - -
3/29 7:50am 257 4 G 7 58° 18% - - 15° 59.2° 43.1° - - -
3/29 7:40am 294 2 G 8 58° 17% - - 14° 59.2° 43.1° - - -
3/29 7:30am 26 3 G 5 57° 18% - - 14° 58.4° 43.1° - - -
3/29 7:20am 12 3 G 8 57° 19% - - 14° 58.4° 43.1° - - -
3/29 7:10am 315 2 G 5 56° 19% - - 14° 58.4° 43.1° - - -
3/29 7:00am 75 3 G 7 56° 19% - - 14° 58.4° 43.1° - - -
3/29 6:50am 317 1 G 4 57° 18% - - 14° 58.4° 43.1° - - -
3/29 6:40am 119 3 G 6 56° 19% - - 14° 58.4° 43.1° - - -
3/29 6:30am 85 2 G 5 56° 19% - - 14° 58.4° 43.1° - - -
3/29 6:20am 54 3 G 6 57° 18% - - 13° 58.4° 43.1° - - -
3/29 6:10am 100 4 G 7 54° 20% - - 14° 58.4° 43.1° - - -
3/29 6:00am 78 4 G 11 57° 19% - - 15° 57.7° 54.5° - - -
3/29 5:50am 81 6 G 12 57° 19% - - 15° 57.7° 54.5° - - -
3/29 5:40am 80 5 G 12 57° 19% - - 15° 57.7° 54.5° - - -
3/29 5:30am 79 6 G 12 57° 19% - - 15° 57.7° 54.5° - - -
3/29 5:20am 83 5 G 10 57° 19% - - 15° 57.4° 54.5° - - -
3/29 5:10am 69 5 G 11 56° 19% - - 15° 57.4° 54.5° - - -
3/29 5:00am 87 5 G 10 56° 19% - - 15° 57.4° 54.5° - - -
3/29 4:50am 62 6 G 13 57° 19% - - 15° 57.4° 54.5° - - -
3/29 4:40am 61 8 G 12 57° 19% - - 15° 57.4° 54.5° - - -
3/29 4:30am 52 8 G 13 56° 20% - - 15° 56.9° 54.5° - - -
3/29 4:20am 57 6 G 12 56° 19% - - 15° 56.9° 54.5° - - -
3/29 4:10am 65 6 G 13 56° 19% - - 15° 56.9° 54.5° - - -
3/29 4:00am 73 4 G 8 55° 20% - - 14° 56.7° 54.5° - - -
3/29 3:50am 87 5 G 14 55° 20% - - 14° 56.7° 54.5° - - -
3/29 3:40am 85 7 G 13 55° 19% - - 14° 56.7° 54.5° - - -
3/29 3:30am 88 7 G 14 55° 19% - - 14° 56.7° 54.5° - - -
3/29 3:20am 88 7 G 13 56° 19% - - 14° 56.7° 54.5° - - -
3/29 3:10am 70 7 G 13 55° 19% - - 14° 56.7° 54.5° - - -
3/29 3:00am 71 8 G 16 56° 19% - - 14° 56.7° 54.5° - - -
3/29 2:50am 63 9 G 15 55° 19% - - 14° 56.7° 54.5° - - -
3/29 2:40am 70 8 G 16 55° 20% - - 15° 56.7° 54.5° - - -
3/29 2:30am 72 8 G 15 55° 20% - - 15° 56.7° 54.5° - - -
3/29 2:20am 79 7 G 13 55° 20% - - 15° 56.7° 54.5° - - -
3/29 2:10am 81 7 G 13 56° 19% - - 14° 56.7° 54.5° - - -
3/29 2:00am 87 6 G 11 55° 20% - - 15° 56.7° 54.5° - - -
3/29 1:50am 95 5 G 9 55° 20% - - 15° 56.7° 54.5° - - -
3/29 1:40am 98 6 G 10 55° 20% - - 15° 56.7° 54.7° - - -
3/29 1:30am 104 5 G 10 56° 19% - - 14° 56.7° 54.7° - - -
3/29 1:20am 98 7 G 11 56° 19% - - 14° 56.7° 54.7° - - -
3/29 1:10am 95 7 G 11 56° 19% - - 14° 56.7° 54.7° - - -
3/29 1:00am 93 7 G 10 56° 18% - - 14° 56.7° 54.7° - - -
3/29 12:50am 91 7 G 10 56° 19% - - 14° 56.7° 54.7° - - -
3/29 12:40am 99 7 G 11 56° 19% - - 14° 56.2° 54.7° - - -
3/29 12:30am 103 6 G 9 55° 20% - - 15° 55.9° 54.7° - - -
3/29 12:20am 108 6 G 9 55° 22% - - 17° 55.8° 54.7° - - -
3/29 12:10am 113 6 G 9 55° 24% - - 19° 55.6° 54.8° - - -
3/29 12:00am 101 7 G 10 55° 28% - - 23° 63.4° 39.5° - - -
3/28 11:50pm 106 5 G 7 55° 32% - - 25° 63.4° 39.5° - - -
3/28 11:40pm 104 6 G 9 55° 29% - - 23° 63.4° 39.5° - - -
3/28 11:30pm 101 6 G 9 55° 31% - - 25° 63.4° 39.5° - - -
3/28 11:20pm 106 6 G 9 55° 32% - - 26° 63.4° 39.5° - - -
3/28 11:10pm 107 5 G 7 55° 32% - - 26° 63.4° 39.5° - - -
3/28 11:00pm 108 3 G 6 54° 32% - - 25° 63.4° 39.5° - - -
3/28 10:50pm 94 4 G 6 55° 30% - - 25° 63.4° 39.5° - - -
3/28 10:40pm 95 4 G 5 54° 35% - - 26° 63.4° 39.5° - - -
3/28 10:30pm 65 2 G 5 52° 39% - - 28° 63.4° 39.5° - - -
3/28 10:20pm 24 3 G 6 53° 39% - - 29° 63.4° 39.5° - - -
3/28 10:10pm 38 2 G 6 53° 41% - - 30° 63.4° 39.5° - - -
3/28 10:00pm 48 3 G 7 54° 41% - - 31° 63.4° 39.5° - - -
3/28 9:50pm 73 3 G 5 54° 47% - - 34° 63.4° 39.5° - - -
3/28 9:40pm 95 3 G 5 53° 53% - - 37° 63.4° 39.5° - - -
3/28 9:30pm 109 4 G 5 52° 60% - - 38° 63.4° 39.5° - - -
3/28 9:20pm 118 4 G 5 51° 61% - - 38° 63.4° 39.5° - - -
3/28 9:10pm 119 4 G 5 51° 63% - - 38° 63.4° 39.5° - - -
3/28 9:00pm 119 4 G 4 51° 62% - - 38° 63.4° 39.5° - - -
3/28 8:50pm 114 4 G 5 50° 64% - - 38° 63.4° 39.5° - - -
3/28 8:40pm 117 3 G 4 51° 62% - - 38° 63.4° 39.5° - - -
3/28 8:30pm 115 4 G 5 51° 64% - - 39° 63.4° 39.5° - - -
3/28 8:20pm 128 3 G 4 50° 67% - - 39° 63.4° 39.5° - - -
3/28 8:10pm 134 2 G 4 50° 67% - - 40° 63.4° 39.5° - - -
3/28 8:00pm 159 2 G 4 50° 68% - - 40° 63.4° 39.5° - - -
3/28 7:50pm 136 2 G 4 51° 66% - - 40° 63.4° 39.5° - - -
3/28 7:40pm 170 2 G 3 52° 64% - - 40° 63.4° 39.5° - - -
3/28 7:30pm 138 2 G 4 51° 64% - - 40° 63.4° 39.5° - - -
3/28 7:20pm 158 1 G 3 53° 62% - - 40° 63.4° 39.5° - - -
3/28 7:10pm 171 1 G 2 53° 61% - - 40° 63.4° 39.5° - - -
3/28 7:00pm 215 1 G 3 54° 59% - - 40° 63.4° 39.5° - - -
3/28 6:50pm 233 1 G 3 55° 57% - - 40° 63.4° 39.5° - - -
3/28 6:40pm 236 1 G 4 56° 56% - - 40° 63.4° 39.5° - - -
3/28 6:30pm 259 1 G 4 57° 55% - - 41° 63.4° 39.5° - - -
3/28 6:20pm 241 2 G 7 57° 54% - - 41° 63.4° 39.5° - - -
3/28 6:10pm 250 2 G 7 58° 52% - - 41° 63.4° 39.5° - - -
3/28 6:00pm 258 2 G 6 59° 51% - - 41° 63.4° 39.5° - - -
3/28 5:50pm 238 3 G 9 59° 51% - - 41° 63.4° 39.5° - - -
3/28 5:40pm 239 4 G 12 59° 50% - - 41° 63.4° 39.5° - - -
3/28 5:30pm 243 3 G 9 61° 45% - - 39° 63.4° 39.5° - - -
3/28 5:20pm 247 2 G 6 61° 43% - - 39° 63.4° 39.5° - - -
3/28 5:10pm 219 4 G 8 60° 44% - - 38° 63.4° 39.5° - - -
3/28 5:00pm 249 3 G 8 61° 42% - - 38° 63.4° 39.5° - - -
3/28 4:50pm 256 2 G 7 62° 42% - - 38° 63.4° 39.5° - - -
3/28 4:40pm 258 3 G 7 61° 42% - - 38° 63.4° 39.5° - - -
3/28 4:30pm 269 3 G 9 62° 40% - - 37° 63.4° 39.5° - - -
3/28 4:20pm 274 3 G 8 61° 39% - - 36° 63.4° 39.5° - - -
3/28 4:10pm 265 2 G 5 62° 39% - - 37° 63.4° 39.5° - - -
3/28 4:00pm 273 3 G 8 62° 38% - - 36° 63.1° 39.5° - - -
3/28 3:50pm 243 3 G 7 61° 38% - - 36° 63.1° 39.5° - - -
3/28 3:40pm 273 3 G 7 62° 38% - - 35° 63.1° 39.5° - - -
3/28 3:30pm 255 2 G 5 61° 38% - - 35° 63.1° 39.5° - - -
3/28 3:20pm 282 4 G 10 61° 38% - - 36° 63.1° 39.5° - - -
3/28 3:10pm 279 2 G 7 62° 39% - - 37° 63.1° 39.5° - - -
3/28 3:00pm 211 4 G 8 61° 40% - - 36° 62.3° 39.5° - - -
3/28 2:50pm 198 4 G 10 60° 40% - - 36° 62.3° 39.5° - - -
3/28 2:40pm 287 3 G 7 61° 40% - - 36° 62.3° 39.5° - - -
3/28 2:30pm 281 2 G 6 61° 42% - - 38° 62.3° 39.5° - - -
3/28 2:20pm 222 4 G 8 60° 42% - - 37° 62.3° 39.5° - - -
3/28 2:10pm 260 3 G 11 61° 42% - - 37° 62.3° 39.5° - - -
3/28 2:00pm 250 3 G 8 61° 42% - - 37° 62.3° 39.5° - - -
3/28 1:50pm 248 3 G 8 60° 41% - - 36° 62.3° 39.5° - - -
3/28 1:40pm 285 4 G 9 60° 41% - - 36° 62.3° 39.5° - - -
3/28 1:30pm 241 4 G 11 60° 39% - - 35° 62.3° 39.5° - - -
3/28 1:20pm 229 4 G 9 59° 40% - - 35° 62.3° 39.5° - - -
3/28 1:10pm 239 4 G 9 59° 40% - - 35° 62.3° 39.5° - - -
3/28 1:00pm 223 5 G 10 58° 40% - - 34° 62.3° 39.5° - - -
3/28 12:50pm 224 4 G 9 59° 39% - - 34° 62.3° 39.5° - - -
3/28 12:40pm 230 5 G 13 59° 38% - - 33° 62.3° 39.5° - - -
3/28 12:30pm 243 3 G 8 59° 35% - - 31° 62.3° 39.5° - - -
3/28 12:20pm 273 3 G 10 59° 34% - - 31° 62.3° 39.5° - - -
3/28 12:10pm 220 4 G 9 59° 33% - - 30° 62.3° 39.5° - - -
3/28 12:00pm 280 3 G 7 60° 27% - - 26° 62.3° 39.5° - - -
3/28 11:50am 24 1 G 4 60° 22% - - 21° 61.2° 39.5° - - -
3/28 11:40am 0 2 G 6 59° 22% - - 21° 60° 39.5° - - -
3/28 11:30am 6 2 G 6 59° 21% - - 19° 59.4° 39.5° - - -
3/28 11:20am 22 4 G 9 58° 23% - - 20° 58.8° 39.5° - - -
3/28 11:10am 52 3 G 10 58° 22% - - 19° 58.8° 39.5° - - -
3/28 11:00am 9 2 G 7 58° 23% - - 20° 58.4° 39.5° - - -
3/28 10:50am 38 4 G 8 57° 23% - - 19° 58° 39.5° - - -
3/28 10:40am 48 4 G 10 57° 22% - - 18° 57.4° 39.5° - - -
3/28 10:30am 58 4 G 13 56° 24% - - 20° 57.4° 39.5° - - -
3/28 10:20am 41 6 G 13 56° 24% - - 20° 56.7° 39.5° - - -
3/28 10:10am 61 5 G 11 55° 23% - - 19° 56° 39.5° - - -
3/28 10:00am 52 6 G 15 55° 24% - - 19° 55.5° 39.5° - - -
3/28 9:50am 39 8 G 16 54° 23% - - 18° 55° 39.5° - - -
3/28 9:40am 39 8 G 13 54° 24% - - 18° 54.9° 39.5° - - -
3/28 9:30am 45 7 G 12 54° 25% - - 19° 54.9° 39.5° - - -
3/28 9:20am 50 7 G 14 54° 25% - - 19° 54.1° 39.5° - - -
3/28 9:10am 40 6 G 15 53° 26% - - 19° 53.9° 39.5° - - -
3/28 9:00am 48 6 G 12 53° 26% - - 18° 53.2° 39.5° - - -
3/28 8:50am 40 7 G 16 52° 26% - - 18° 52.8° 39.5° - - -
3/28 8:40am 44 6 G 12 52° 26% - - 18° 52.6° 39.5° - - -
3/28 8:30am 44 4 G 7 52° 27% - - 19° 52.3° 39.5° - - -
3/28 8:20am 56 4 G 10 51° 27% - - 19° 51.7° 39.5° - - -
3/28 8:10am 54 6 G 12 51° 27% - - 18° 51.2° 39.5° - - -
3/28 8:00am 69 5 G 11 50° 27% - - 18° 50.8° 39.5° - - -
3/28 7:50am 100 3 G 7 49° 28% - - 18° 50.4° 39.5° - - -
3/28 7:40am 83 3 G 8 48° 29% - - 18° 48.8° 39.5° - - -
3/28 7:30am 97 4 G 8 48° 30% - - 18° 48.8° 39.5° - - -
3/28 7:20am 112 5 G 9 48° 31% - - 19° 48.8° 39.5° - - -
3/28 7:10am 103 5 G 9 48° 30% - - 18° 48.8° 39.5° - - -
3/28 7:00am 97 6 G 11 48° 29% - - 17° 48.8° 39.5° - - -
3/28 6:50am 99 7 G 12 48° 29% - - 17° 48.8° 39.5° - - -
3/28 6:40am 94 5 G 10 48° 29% - - 17° 48.8° 39.5° - - -
3/28 6:30am 65 4 G 6 48° 29% - - 18° 48.8° 39.5° - - -
3/28 6:20am 90 6 G 10 48° 31% - - 19° 48.7° 39.5° - - -
3/28 6:10am 101 7 G 11 48° 33% - - 20° 48.7° 39.5° - - -
3/28 6:00am 100 6 G 11 48° 32% - - 19° 48.7° 39.5° - - -